createdAt,value
2019-02-09T00:00:09.771Z,21.90
2019-02-09T00:02:39.368Z,23.18
2019-02-09T00:05:09.185Z,25.50
2019-02-09T00:07:39.030Z,23.02
2019-02-09T00:10:08.996Z,25.12
2019-02-09T00:12:38.542Z,26.93
2019-02-09T00:15:08.331Z,21.85
2019-02-09T00:17:38.006Z,25.05
2019-02-09T00:20:07.853Z,21.93
2019-02-09T00:22:37.717Z,25.48
2019-02-09T00:25:07.445Z,23.05
2019-02-09T00:27:37.149Z,23.30
2019-02-09T00:30:06.876Z,25.37
2019-02-09T00:32:36.695Z,29.63
2019-02-09T00:35:06.358Z,36.85
2019-02-09T00:37:35.958Z,30.80
2019-02-09T00:40:06.215Z,27.73
2019-02-09T00:42:35.655Z,25.95
2019-02-09T00:45:06.421Z,26.82
2019-02-09T00:47:36.134Z,26.42
2019-02-09T00:50:06.283Z,25.55
2019-02-09T00:52:35.729Z,46.18
2019-02-09T00:55:06.421Z,29.55
2019-02-09T00:57:37.090Z,28.38
2019-02-09T01:00:13.275Z,28.10
2019-02-09T01:02:42.932Z,23.47
2019-02-09T01:22:35.314Z,21.82
2019-02-09T01:25:05.469Z,23.40
2019-02-09T01:27:35.208Z,22.32
2019-02-09T01:30:06.530Z,20.97
2019-02-09T01:32:36.331Z,23.12
2019-02-09T01:35:06.954Z,20.72
2019-02-09T01:37:36.595Z,19.00
2019-02-09T01:40:07.259Z,19.73
2019-02-09T01:42:36.803Z,19.12
2019-02-09T01:45:07.428Z,21.07
2019-02-09T01:47:37.043Z,20.57
2019-02-09T01:50:08.391Z,16.23
2019-02-09T02:09:59.883Z,22.27
2019-02-09T02:12:29.572Z,18.98
2019-02-09T02:14:59.256Z,20.00
2019-02-09T02:17:28.761Z,15.78
2019-02-09T02:19:58.513Z,16.17
2019-02-09T02:22:28.209Z,15.70
2019-02-09T02:24:57.726Z,15.53
2019-02-09T02:27:27.423Z,15.40
2019-02-09T02:29:56.964Z,23.90
2019-02-09T02:32:26.837Z,17.37
2019-02-09T02:34:56.363Z,19.02
2019-02-09T02:37:26.456Z,15.28
2019-02-09T02:39:56.529Z,16.70
2019-02-09T02:42:26.017Z,17.48
2019-02-09T02:44:55.697Z,16.55
2019-02-09T02:47:26.009Z,16.35
2019-02-09T02:49:55.672Z,15.90
2019-02-09T02:52:25.243Z,14.30
2019-02-09T02:54:54.853Z,15.93
2019-02-09T02:57:24.343Z,19.17
2019-02-09T02:59:53.851Z,20.60
2019-02-09T03:02:23.471Z,19.50
2019-02-09T03:04:53.386Z,17.05
2019-02-09T03:07:23.598Z,30.45
2019-02-09T03:09:53.198Z,15.95
2019-02-09T03:12:22.740Z,20.50
2019-02-09T03:14:52.325Z,19.35
2019-02-09T03:17:22.080Z,15.98
2019-02-09T03:19:51.623Z,17.67
2019-02-09T03:22:21.343Z,18.10
2019-02-09T03:24:51.161Z,18.42
2019-02-09T03:27:21.092Z,18.07
2019-02-09T03:29:50.812Z,15.88
2019-02-09T03:32:20.397Z,17.15
2019-02-09T03:34:51.117Z,18.85
2019-02-09T03:37:20.912Z,18.02
2019-02-09T03:39:50.445Z,20.17
2019-02-09T03:42:20.317Z,28.20
2019-02-09T03:44:49.905Z,17.82
2019-02-09T03:47:19.476Z,17.57
2019-02-09T03:49:49.240Z,22.70
2019-02-09T03:52:18.709Z,17.75
2019-02-09T03:54:48.299Z,18.80
2019-02-09T04:14:39.088Z,19.90
2019-02-09T04:17:08.868Z,19.17
2019-02-09T04:19:38.283Z,20.08
2019-02-09T04:22:08.107Z,18.90
2019-02-09T04:24:37.607Z,18.37
2019-02-09T04:27:07.277Z,19.15
2019-02-09T04:29:37.011Z,17.40
2019-02-09T04:32:06.587Z,30.65
2019-02-09T04:51:57.147Z,15.98
2019-02-09T05:11:49.348Z,22.20
2019-02-09T05:14:19.265Z,46.92
2019-02-09T05:16:48.990Z,27.00
2019-02-09T05:36:41.470Z,21.02
2019-02-09T05:39:11.157Z,21.30
2019-02-09T05:41:40.634Z,21.37
2019-02-09T05:44:10.324Z,22.25
2019-02-09T05:46:39.878Z,20.10
2019-02-09T05:49:09.591Z,24.77
2019-02-09T05:51:39.244Z,28.55
2019-02-09T05:54:08.695Z,23.25
2019-02-09T05:56:38.164Z,23.60
2019-02-09T05:59:07.908Z,23.38
2019-02-09T06:01:37.533Z,23.62
2019-02-09T06:04:07.146Z,20.37
2019-02-09T06:06:37.135Z,17.57
2019-02-09T06:09:08.363Z,21.12
2019-02-09T06:11:38.092Z,20.65
2019-02-09T06:14:07.567Z,20.35
2019-02-09T06:16:37.205Z,19.42
2019-02-09T06:19:07.113Z,18.12
2019-02-09T06:21:36.831Z,16.60
2019-02-09T06:24:06.491Z,17.00
2019-02-09T06:26:36.242Z,18.80
2019-02-09T06:29:05.683Z,17.75
2019-02-09T06:31:40.632Z,16.10
2019-02-09T06:34:05.236Z,15.20
2019-02-09T06:36:34.844Z,23.42
2019-02-09T06:39:04.601Z,43.87
2019-02-09T06:41:34.431Z,54.38
2019-02-09T06:44:04.112Z,38.48
2019-02-09T06:46:33.642Z,36.50
2019-02-09T06:49:03.498Z,25.82
2019-02-09T06:51:33.215Z,27.95
2019-02-09T06:54:02.975Z,82.27
2019-02-09T06:56:32.741Z,83.27
2019-02-09T06:59:02.439Z,89.00
2019-02-09T07:01:32.095Z,84.87
2019-02-09T07:04:01.720Z,81.47
2019-02-09T07:23:54.107Z,105.45
2019-02-09T07:26:23.872Z,114.57
2019-02-09T07:28:53.734Z,107.25
2019-02-09T07:31:23.644Z,100.62
2019-02-09T07:33:53.375Z,94.67
2019-02-09T07:36:23.163Z,95.40
2019-02-09T07:56:14.419Z,64.00
2019-02-09T07:58:43.990Z,74.30
2019-02-09T08:01:13.601Z,74.87
2019-02-09T08:03:43.243Z,83.72
2019-02-09T08:06:12.709Z,75.47
2019-02-09T08:08:42.433Z,74.85
2019-02-09T08:11:12.023Z,80.72
2019-02-09T08:13:41.742Z,82.78
2019-02-09T08:16:11.478Z,86.78
2019-02-09T08:18:41.231Z,67.80
2019-02-09T08:21:10.889Z,72.55
2019-02-09T08:23:40.464Z,69.90
2019-02-09T08:26:10.253Z,65.90
2019-02-09T08:28:40.007Z,58.55
2019-02-09T08:31:09.815Z,70.35
2019-02-09T08:33:39.491Z,66.45
2019-02-09T08:53:29.852Z,583.02
2019-02-09T08:55:59.515Z,70.52
2019-02-09T08:58:30.317Z,71.30
2019-02-09T09:00:59.948Z,62.27
2019-02-09T09:03:29.813Z,61.05
2019-02-09T09:05:59.378Z,62.17
2019-02-09T09:08:29.072Z,57.60
2019-02-09T09:10:59.087Z,53.90
2019-02-09T09:30:49.061Z,56.70
2019-02-09T09:56:44.821Z,48.87
2019-02-09T09:59:14.349Z,46.18
2019-02-09T10:01:43.993Z,41.70
2019-02-09T10:04:13.372Z,42.45
2019-02-09T10:06:43.679Z,47.65
2019-02-09T10:09:13.122Z,40.70
2019-02-09T10:11:43.123Z,53.87
2019-02-09T10:14:12.498Z,50.43
2019-02-09T10:16:42.064Z,57.13
2019-02-09T10:19:11.565Z,53.55
2019-02-09T10:21:41.056Z,49.00
2019-02-09T10:41:30.606Z,50.98
2019-02-09T10:44:00.175Z,50.08
2019-02-09T10:46:29.879Z,54.08
2019-02-09T11:06:21.674Z,48.20
2019-02-09T11:08:51.405Z,53.70
2019-02-09T11:11:21.207Z,53.58
2019-02-09T11:13:50.988Z,47.98
2019-02-09T11:33:42.113Z,51.85
2019-02-09T11:36:11.294Z,45.40
2019-02-09T11:38:40.834Z,50.70
2019-02-09T11:41:11.060Z,47.35
2019-02-09T11:43:40.415Z,45.20
2019-02-09T11:46:10.207Z,50.30
2019-02-09T11:48:39.636Z,51.10
2019-02-09T11:51:09.268Z,53.02
2019-02-09T11:53:38.850Z,55.83
2019-02-09T11:56:08.449Z,49.40
2019-02-09T12:15:59.997Z,45.85
2019-02-09T12:18:29.726Z,42.53
2019-02-09T12:20:59.543Z,44.53
2019-02-09T12:23:29.183Z,44.75
2019-02-09T12:25:58.756Z,47.80
2019-02-09T12:28:28.456Z,46.15
2019-02-09T12:30:58.110Z,40.00
2019-02-09T12:33:27.722Z,43.80
2019-02-09T12:35:57.459Z,40.90
2019-02-09T12:38:27.732Z,39.63
2019-02-09T12:40:57.373Z,42.63
2019-02-09T12:43:27.083Z,42.63
2019-02-09T12:45:56.920Z,40.95
2019-02-09T12:48:26.387Z,43.30
2019-02-09T12:50:56.112Z,40.50
2019-02-09T12:53:25.858Z,41.15
2019-02-09T12:55:55.453Z,52.78
2019-02-09T12:58:25.045Z,47.27
2019-02-09T13:00:54.579Z,46.85
2019-02-09T13:03:30.983Z,50.03
2019-02-09T13:05:55.492Z,43.17
2019-02-09T13:08:25.116Z,36.87
2019-02-09T13:10:54.725Z,41.47
2019-02-09T13:13:24.227Z,38.27
2019-02-09T13:15:53.950Z,41.53
2019-02-09T13:18:23.679Z,40.00
2019-02-09T13:20:53.395Z,35.30
2019-02-09T13:23:23.065Z,38.97
2019-02-09T13:25:52.681Z,37.37
2019-02-09T13:28:22.315Z,41.07
2019-02-09T13:30:52.051Z,42.57
2019-02-09T13:33:21.567Z,35.93
2019-02-09T13:35:51.127Z,35.27
2019-02-09T13:58:35.206Z,90.07
2019-02-09T14:01:04.851Z,39.67
2019-02-09T14:03:34.292Z,39.53
2019-02-09T14:06:08.200Z,39.93
2019-02-09T14:08:33.868Z,41.97
2019-02-09T14:11:03.447Z,40.47
2019-02-09T14:13:33.178Z,43.20
2019-02-09T14:16:08.261Z,36.53
2019-02-09T14:18:32.324Z,42.97
2019-02-09T14:21:01.918Z,36.33
2019-02-09T14:23:31.487Z,44.60
2019-02-09T14:26:01.199Z,37.87
2019-02-09T14:28:30.918Z,36.83
2019-02-09T14:48:22.512Z,37.27
2019-02-09T14:50:52.248Z,38.53
2019-02-09T14:53:21.972Z,36.90
2019-02-09T14:55:51.654Z,34.20
2019-02-09T14:58:21.262Z,36.37
2019-02-09T15:00:52.447Z,40.57
2019-02-09T15:03:26.948Z,49.87
2019-02-09T15:05:52.099Z,42.43
2019-02-09T15:08:21.783Z,42.53
2019-02-09T15:10:51.408Z,34.05
2019-02-09T15:13:21.087Z,33.95
2019-02-09T15:16:02.469Z,35.10
2019-02-09T15:18:32.297Z,40.20
2019-02-09T15:21:02.559Z,40.12
2019-02-09T15:23:32.454Z,40.95
2019-02-09T15:26:02.402Z,42.40
2019-02-09T15:28:31.985Z,41.13
2019-02-09T15:31:01.720Z,46.18
2019-02-09T15:33:31.401Z,51.80
2019-02-09T15:36:01.237Z,49.55
2019-02-09T15:47:11.756Z,43.90
2019-02-09T15:49:41.119Z,49.93
2019-02-09T15:52:10.837Z,69.85
2019-02-09T15:54:40.391Z,59.90
2019-02-09T15:57:10.084Z,74.97
2019-02-09T15:59:39.848Z,62.83
2019-02-09T16:02:10.072Z,59.08
2019-02-09T16:04:40.178Z,63.75
2019-02-09T16:07:10.440Z,62.93
2019-02-09T16:09:40.214Z,54.60
2019-02-09T16:12:09.758Z,56.28
2019-02-09T16:14:39.342Z,59.13
2019-02-09T16:17:08.984Z,60.92
2019-02-09T16:19:38.662Z,70.65
2019-02-09T16:22:08.507Z,62.35
2019-02-09T16:24:38.066Z,62.78
2019-02-09T16:27:07.806Z,68.47
2019-02-09T16:29:37.603Z,80.30
2019-02-09T16:32:07.447Z,86.63
2019-02-09T16:34:37.046Z,91.10
2019-02-09T16:37:06.397Z,81.60
2019-02-09T16:39:36.017Z,79.55
2019-02-09T16:42:05.673Z,83.70
2019-02-09T16:44:35.486Z,82.80
2019-02-09T16:47:04.949Z,84.07
2019-02-09T16:49:34.579Z,86.53
2019-02-09T16:52:04.113Z,91.82
2019-02-09T16:54:33.536Z,93.33
2019-02-09T16:57:03.162Z,93.67
2019-02-09T16:59:32.873Z,96.75
2019-02-09T17:02:02.735Z,96.50
2019-02-09T17:04:33.355Z,92.17
2019-02-09T17:07:02.179Z,107.52
2019-02-09T17:09:31.755Z,92.27
2019-02-09T17:12:01.480Z,113.97
2019-02-09T17:14:31.622Z,130.95
2019-02-09T17:17:01.387Z,98.65
2019-02-09T17:19:31.130Z,100.05
2019-02-09T17:22:00.945Z,93.35
2019-02-09T17:24:30.535Z,95.67
2019-02-09T17:27:00.037Z,105.70
2019-02-09T17:29:29.703Z,125.50
2019-02-09T17:31:59.483Z,101.42
2019-02-09T17:34:29.429Z,106.70
2019-02-09T17:36:59.510Z,228.47
2019-02-09T17:39:29.283Z,159.48
2019-02-09T17:41:59.080Z,111.35
2019-02-09T17:44:28.931Z,108.07
2019-02-09T17:46:58.583Z,105.58
2019-02-09T17:49:28.044Z,111.92
2019-02-09T17:51:58.859Z,100.50
2019-02-09T17:54:28.636Z,121.45
2019-02-09T17:56:58.193Z,109.12
2019-02-09T17:59:27.829Z,133.47
2019-02-09T18:01:57.574Z,102.42
2019-02-09T18:04:27.128Z,106.52
2019-02-09T18:06:57.070Z,101.80
2019-02-09T18:09:26.732Z,113.85
2019-02-09T18:11:56.344Z,110.83
2019-02-09T18:14:26.700Z,229.60
2019-02-09T18:16:56.488Z,143.02
2019-02-09T18:19:25.902Z,94.17
2019-02-09T18:21:55.810Z,101.80
2019-02-09T18:24:26.130Z,120.37
2019-02-09T18:26:55.873Z,107.17
2019-02-09T18:29:25.685Z,103.67
2019-02-09T18:31:55.485Z,110.03
2019-02-09T18:34:25.003Z,120.22
2019-02-09T18:36:54.611Z,121.13
2019-02-09T18:39:24.107Z,122.37
2019-02-09T18:41:53.576Z,111.85
2019-02-09T18:44:23.244Z,118.50
2019-02-09T18:46:52.751Z,126.18
2019-02-09T18:49:22.369Z,134.85
2019-02-09T18:51:52.663Z,142.32
2019-02-09T18:54:22.117Z,133.12
2019-02-09T18:56:51.751Z,124.25
2019-02-09T18:59:21.525Z,158.07
2019-02-09T19:01:51.104Z,128.10
2019-02-09T19:04:20.930Z,129.78
2019-02-09T19:06:51.084Z,111.70
2019-02-09T19:09:22.316Z,145.90
2019-02-09T19:11:50.555Z,133.00
2019-02-09T19:14:20.177Z,221.75
2019-02-09T19:16:49.656Z,190.80
2019-02-09T19:19:19.417Z,211.00
2019-02-09T19:21:49.635Z,227.62
2019-02-09T19:24:19.415Z,419.80
2019-02-09T19:26:49.121Z,414.23
2019-02-09T19:29:18.636Z,366.08
2019-02-09T19:31:48.332Z,309.90
2019-02-09T19:34:18.037Z,307.20
2019-02-09T19:36:47.647Z,455.03
2019-02-09T19:39:17.180Z,396.50
2019-02-09T19:41:46.896Z,395.52
2019-02-09T19:44:16.683Z,397.60
2019-02-09T19:46:46.387Z,411.35
2019-02-09T19:49:16.409Z,372.77
2019-02-09T19:51:46.105Z,350.48
2019-02-09T19:54:15.811Z,285.85
2019-02-09T19:56:45.756Z,278.73
2019-02-09T19:59:15.467Z,284.05
2019-02-09T20:01:46.047Z,266.73
2019-02-09T20:04:15.503Z,269.15
2019-02-09T20:06:45.252Z,260.65
2019-02-09T20:09:15.099Z,264.77
2019-02-09T20:11:44.633Z,310.00
2019-02-09T20:14:14.577Z,306.65
2019-02-09T20:16:44.060Z,312.00
2019-02-09T20:19:13.688Z,301.32
2019-02-09T20:21:43.300Z,307.50
2019-02-09T20:24:12.815Z,376.02
2019-02-09T20:26:42.647Z,406.15
2019-02-09T20:29:12.525Z,420.88
2019-02-09T20:31:42.504Z,435.17
2019-02-09T20:34:12.212Z,476.07
2019-02-09T20:36:41.997Z,521.80
2019-02-09T20:39:11.678Z,516.10
2019-02-09T20:41:41.255Z,543.50
2019-02-09T20:44:10.892Z,591.62
2019-02-09T20:46:40.651Z,566.83
2019-02-09T20:49:10.197Z,577.97
2019-02-09T20:51:39.992Z,653.33
2019-02-09T20:54:09.762Z,661.45
2019-02-09T20:56:39.246Z,669.55
2019-02-09T20:59:09.579Z,676.82
2019-02-09T21:01:39.114Z,650.50
2019-02-09T21:04:08.810Z,619.67
2019-02-09T21:06:38.428Z,637.80
2019-02-09T21:09:08.844Z,700.17
2019-02-09T21:11:38.552Z,647.92
2019-02-09T21:14:07.999Z,628.20
2019-02-09T21:16:37.610Z,642.58
2019-02-09T21:19:07.392Z,622.33
2019-02-09T21:21:37.144Z,375.87
2019-02-09T21:24:07.396Z,396.55
2019-02-09T21:26:37.180Z,345.02
2019-02-09T21:29:06.944Z,518.23
2019-02-09T21:31:36.591Z,377.52
2019-02-09T21:34:06.272Z,297.20
2019-02-09T21:36:35.737Z,459.05
2019-02-09T21:39:09.142Z,233.10
2019-02-09T21:41:38.625Z,164.97
2019-02-09T21:44:08.396Z,278.37
2019-02-09T21:46:38.367Z,314.65
2019-02-09T21:49:08.161Z,258.23
2019-02-09T21:51:37.854Z,217.85
2019-02-09T21:54:07.328Z,187.35
2019-02-09T21:56:36.987Z,187.95
2019-02-09T21:59:06.809Z,163.47
2019-02-09T22:01:36.751Z,167.98
2019-02-09T22:04:06.464Z,149.12
2019-02-09T22:06:36.065Z,123.28
2019-02-09T22:09:07.298Z,129.12
2019-02-09T22:11:36.881Z,128.38
2019-02-09T22:14:06.726Z,114.47
2019-02-09T22:16:36.952Z,86.30
2019-02-09T22:19:05.882Z,93.37
2019-02-09T22:21:35.589Z,76.10
2019-02-09T22:24:05.317Z,79.90
2019-02-09T22:26:35.144Z,80.85
2019-02-09T22:29:04.804Z,73.97
2019-02-09T22:31:34.395Z,67.32
2019-02-09T22:34:04.165Z,61.00
2019-02-09T22:36:37.236Z,57.88
2019-02-09T22:39:03.720Z,56.80
2019-02-09T22:41:33.439Z,56.40
2019-02-09T22:44:02.917Z,57.05
2019-02-09T22:46:32.752Z,66.50
2019-02-09T22:49:02.124Z,67.97
2019-02-09T22:51:32.355Z,62.67
2019-02-09T22:54:02.003Z,63.63
2019-02-09T22:56:31.691Z,109.97
2019-02-09T22:59:01.438Z,62.30
2019-02-09T23:01:40.050Z,60.83
2019-02-09T23:04:24.902Z,58.48
2019-02-09T23:07:00.139Z,54.63
2019-02-09T23:09:31.462Z,58.30
2019-02-09T23:12:01.031Z,59.18
2019-02-09T23:14:30.812Z,55.98
2019-02-09T23:17:00.515Z,59.13
2019-02-09T23:19:30.080Z,55.58
2019-02-09T23:21:59.492Z,59.83
2019-02-09T23:24:29.114Z,64.87
2019-02-09T23:26:58.791Z,70.92
2019-02-09T23:29:28.529Z,81.80
2019-02-09T23:31:59.015Z,85.47
2019-02-09T23:34:28.820Z,82.92
2019-02-09T23:36:58.592Z,91.00
2019-02-09T23:39:28.035Z,88.27
2019-02-09T23:41:57.583Z,85.28
2019-02-09T23:44:27.313Z,83.17
2019-02-09T23:46:57.033Z,87.65
2019-02-09T23:49:26.861Z,84.15
2019-02-09T23:51:56.427Z,87.30
2019-02-09T23:54:26.080Z,91.42
2019-02-09T23:56:55.625Z,100.15
2019-02-09T23:59:25.179Z,106.47
